sensor_id;sensor_type;location;lat;lon;timestamp;pressure;altitude;pressure_sealevel;temperature;humidity
67430;BME280;54298;52.076;5.264;2023-09-08T00:00:15;101631.0;;;19.56;82.45
67430;BME280;54298;52.076;5.264;2023-09-08T00:01:51;101632.0;;;19.56;82.32
67430;BME280;54298;52.076;5.264;2023-09-08T00:03:27;101625.0;;;19.53;82.31
67430;BME280;54298;52.076;5.264;2023-09-08T00:05:04;101625.0;;;19.56;82.12
67430;BME280;54298;52.076;5.264;2023-09-08T00:08:16;101620.0;;;19.5;82.49
67430;BME280;54298;52.076;5.264;2023-09-08T00:09:52;101618.0;;;19.52;82.27
67430;BME280;54298;52.076;5.264;2023-09-08T00:11:28;101619.0;;;19.46;82.24
67430;BME280;54298;52.076;5.264;2023-09-08T00:14:40;101615.0;;;19.32;82.75
67430;BME280;54298;52.076;5.264;2023-09-08T00:16:16;101618.0;;;19.28;83.05
67430;BME280;54298;52.076;5.264;2023-09-08T00:17:52;101619.0;;;19.3;82.98
67430;BME280;54298;52.076;5.264;2023-09-08T00:21:05;101616.0;;;19.45;82.5
67430;BME280;54298;52.076;5.264;2023-09-08T00:22:41;101619.0;;;19.32;83.07
67430;BME280;54298;52.076;5.264;2023-09-08T00:24:18;101617.0;;;19.41;82.74
67430;BME280;54298;52.076;5.264;2023-09-08T00:25:54;101623.0;;;19.22;83.62
67430;BME280;54298;52.076;5.264;2023-09-08T00:29:06;101623.0;;;19.21;83.6
67430;BME280;54298;52.076;5.264;2023-09-08T00:30:42;101625.0;;;19.25;83.45
67430;BME280;54298;52.076;5.264;2023-09-08T00:32:18;101630.0;;;19.27;83.52
67430;BME280;54298;52.076;5.264;2023-09-08T00:35:30;101625.0;;;19.16;83.77
67430;BME280;54298;52.076;5.264;2023-09-08T00:37:06;101626.0;;;18.91;84.55
67430;BME280;54298;52.076;5.264;2023-09-08T00:38:43;101628.0;;;19.23;83.44
67430;BME280;54298;52.076;5.264;2023-09-08T00:41:55;101625.0;;;19.28;83.17
67430;BME280;54298;52.076;5.264;2023-09-08T00:43:31;101627.0;;;19.2;83.5
67430;BME280;54298;52.076;5.264;2023-09-08T00:45:08;101630.0;;;19.22;83.29
67430;BME280;54298;52.076;5.264;2023-09-08T00:48:21;101627.0;;;19.11;83.88
67430;BME280;54298;52.076;5.264;2023-09-08T00:49:56;101630.0;;;19.22;83.21
67430;BME280;54298;52.076;5.264;2023-09-08T00:51:33;101627.0;;;19.2;83.23
67430;BME280;54298;52.076;5.264;2023-09-08T00:53:09;101621.0;;;19.25;82.87
67430;BME280;54298;52.076;5.264;2023-09-08T00:56:22;101626.0;;;19.31;82.7
67430;BME280;54298;52.076;5.264;2023-09-08T00:58:00;101620.0;;;19.39;82.34
67430;BME280;54298;52.076;5.264;2023-09-08T00:59:37;101623.0;;;19.47;81.91
67430;BME280;54298;52.076;5.264;2023-09-08T01:02:49;101625.0;;;19.43;82.16
67430;BME280;54298;52.076;5.264;2023-09-08T01:04:25;101623.0;;;19.52;81.7
67430;BME280;54298;52.076;5.264;2023-09-08T01:06:02;101619.0;;;19.48;81.89
67430;BME280;54298;52.076;5.264;2023-09-08T01:09:15;101615.0;;;19.37;82.35
67430;BME280;54298;52.076;5.264;2023-09-08T01:10:51;101619.0;;;19.36;82.4
67430;BME280;54298;52.076;5.264;2023-09-08T01:12:28;101619.0;;;19.2;83.08
67430;BME280;54298;52.076;5.264;2023-09-08T01:14:04;101617.0;;;19.22;83.13
67430;BME280;54298;52.076;5.264;2023-09-08T01:17:16;101617.0;;;19.18;83.26
67430;BME280;54298;52.076;5.264;2023-09-08T01:18:54;101618.0;;;19.2;83.35
67430;BME280;54298;52.076;5.264;2023-09-08T01:20:48;101623.0;;;19.16;83.48
67430;BME280;54298;52.076;5.264;2023-09-08T01:22:50;101620.0;;;19.09;83.85
67430;BME280;54298;52.076;5.264;2023-09-08T01:26:43;101621.0;;;19.18;83.43
67430;BME280;54298;52.076;5.264;2023-09-08T01:29:58;101621.0;;;19.21;83.23
67430;BME280;54298;52.076;5.264;2023-09-08T01:31:35;101612.0;;;19.11;83.81
67430;BME280;54298;52.076;5.264;2023-09-08T01:33:12;101620.0;;;19.27;83.11
67430;BME280;54298;52.076;5.264;2023-09-08T01:36:25;101619.0;;;19.27;82.9
67430;BME280;54298;52.076;5.264;2023-09-08T01:38:02;101620.0;;;19.2;83.33
67430;BME280;54298;52.076;5.264;2023-09-08T01:39:38;101620.0;;;19.03;83.9
67430;BME280;54298;52.076;5.264;2023-09-08T01:41:14;101625.0;;;19.11;83.44
67430;BME280;54298;52.076;5.264;2023-09-08T01:44:27;101620.0;;;18.91;84.22
67430;BME280;54298;52.076;5.264;2023-09-08T01:46:03;101620.0;;;19.06;83.38
67430;BME280;54298;52.076;5.264;2023-09-08T01:47:39;101618.0;;;19.18;82.87
67430;BME280;54298;52.076;5.264;2023-09-08T01:50:51;101614.0;;;19.04;83.51
67430;BME280;54298;52.076;5.264;2023-09-08T01:52:28;101614.0;;;19.07;83.35
67430;BME280;54298;52.076;5.264;2023-09-08T01:54:04;101614.0;;;19.02;83.56
67430;BME280;54298;52.076;5.264;2023-09-08T01:57:16;101616.0;;;19.03;83.61
67430;BME280;54298;52.076;5.264;2023-09-08T01:58:53;101620.0;;;18.98;83.44
67430;BME280;54298;52.076;5.264;2023-09-08T02:00:29;101620.0;;;18.93;83.43
67430;BME280;54298;52.076;5.264;2023-09-08T02:03:41;101621.0;;;19.02;82.91
67430;BME280;54298;52.076;5.264;2023-09-08T02:05:17;101619.0;;;19.09;82.48
67430;BME280;54298;52.076;5.264;2023-09-08T02:06:54;101618.0;;;19.11;82.43
67430;BME280;54298;52.076;5.264;2023-09-08T02:08:30;101618.0;;;19.09;82.43
67430;BME280;54298;52.076;5.264;2023-09-08T02:11:42;101618.0;;;19.05;82.58
67430;BME280;54298;52.076;5.264;2023-09-08T02:13:18;101615.0;;;19.05;82.47
67430;BME280;54298;52.076;5.264;2023-09-08T02:14:54;101614.0;;;19.13;82.08
67430;BME280;54298;52.076;5.264;2023-09-08T02:18:07;101614.0;;;19.09;81.94
67430;BME280;54298;52.076;5.264;2023-09-08T02:19:43;101613.0;;;19.11;81.73
67430;BME280;54298;52.076;5.264;2023-09-08T02:21:20;101613.0;;;19.04;81.87
67430;BME280;54298;52.076;5.264;2023-09-08T02:24:39;101612.0;;;19.03;81.98
67430;BME280;54298;52.076;5.264;2023-09-08T02:26:15;101607.0;;;19.0;82.09
67430;BME280;54298;52.076;5.264;2023-09-08T02:27:51;101607.0;;;18.98;81.83
67430;BME280;54298;52.076;5.264;2023-09-08T02:29:27;101601.0;;;18.8;82.6
67430;BME280;54298;52.076;5.264;2023-09-08T02:32:39;101608.0;;;18.66;83.53
67430;BME280;54298;52.076;5.264;2023-09-08T02:34:15;101603.0;;;18.72;83.34
67430;BME280;54298;52.076;5.264;2023-09-08T02:35:51;101601.0;;;18.63;83.53
67430;BME280;54298;52.076;5.264;2023-09-08T02:39:03;101601.0;;;18.84;82.53
67430;BME280;54298;52.076;5.264;2023-09-08T02:40:40;101605.0;;;18.66;83.59
67430;BME280;54298;52.076;5.264;2023-09-08T02:42:16;101608.0;;;18.75;83.05
67430;BME280;54298;52.076;5.264;2023-09-08T02:45:29;101608.0;;;18.68;83.54
67430;BME280;54298;52.076;5.264;2023-09-08T02:47:05;101612.0;;;18.61;83.94
67430;BME280;54298;52.076;5.264;2023-09-08T02:50:20;101610.0;;;18.61;83.91
67430;BME280;54298;52.076;5.264;2023-09-08T02:53:32;101608.0;;;18.59;83.97
67430;BME280;54298;52.076;5.264;2023-09-08T02:55:08;101610.0;;;18.5;84.53
67430;BME280;54298;52.076;5.264;2023-09-08T02:56:44;101607.0;;;18.59;84.1
67430;BME280;54298;52.076;5.264;2023-09-08T02:59:57;101607.0;;;18.54;83.91
67430;BME280;54298;52.076;5.264;2023-09-08T03:01:33;101613.0;;;18.59;83.78
67430;BME280;54298;52.076;5.264;2023-09-08T03:03:10;101617.0;;;18.53;84.09
67430;BME280;54298;52.076;5.264;2023-09-08T03:06:23;101616.0;;;18.55;84.04
67430;BME280;54298;52.076;5.264;2023-09-08T03:07:59;101618.0;;;18.64;83.77
67430;BME280;54298;52.076;5.264;2023-09-08T03:09:35;101619.0;;;18.63;83.66
67430;BME280;54298;52.076;5.264;2023-09-08T03:11:12;101611.0;;;18.57;83.82
67430;BME280;54298;52.076;5.264;2023-09-08T03:14:24;101615.0;;;18.64;83.37
67430;BME280;54298;52.076;5.264;2023-09-08T03:16:03;101615.0;;;18.61;83.59
67430;BME280;54298;52.076;5.264;2023-09-08T03:17:39;101613.0;;;18.56;83.92
67430;BME280;54298;52.076;5.264;2023-09-08T03:20:52;101610.0;;;18.5;84.19
67430;BME280;54298;52.076;5.264;2023-09-08T03:22:28;101605.0;;;18.53;83.84
67430;BME280;54298;52.076;5.264;2023-09-08T03:24:05;101611.0;;;18.66;83.25
67430;BME280;54298;52.076;5.264;2023-09-08T03:27:17;101608.0;;;18.68;82.87
67430;BME280;54298;52.076;5.264;2023-09-08T03:28:53;101605.0;;;18.64;82.61
67430;BME280;54298;52.076;5.264;2023-09-08T03:30:29;101599.0;;;18.66;82.52
67430;BME280;54298;52.076;5.264;2023-09-08T03:32:05;101595.0;;;18.75;81.98
67430;BME280;54298;52.076;5.264;2023-09-08T03:35:18;101590.0;;;18.59;82.44
67430;BME280;54298;52.076;5.264;2023-09-08T03:36:54;101595.0;;;18.43;83.22
67430;BME280;54298;52.076;5.264;2023-09-08T03:38:30;101595.0;;;18.39;83.83
67430;BME280;54298;52.076;5.264;2023-09-08T03:41:43;101595.0;;;18.43;83.61
67430;BME280;54298;52.076;5.264;2023-09-08T03:43:19;101590.0;;;18.39;84.08
67430;BME280;54298;52.076;5.264;2023-09-08T03:44:55;101591.0;;;18.36;83.87
67430;BME280;54298;52.076;5.264;2023-09-08T03:48:08;101592.0;;;18.28;83.99
67430;BME280;54298;52.076;5.264;2023-09-08T03:49:44;101589.0;;;18.16;84.91
67430;BME280;54298;52.076;5.264;2023-09-08T03:51:20;101587.0;;;18.2;84.78
67430;BME280;54298;52.076;5.264;2023-09-08T03:54:32;101586.0;;;18.28;84.36
67430;BME280;54298;52.076;5.264;2023-09-08T03:56:08;101585.0;;;18.18;84.61
67430;BME280;54298;52.076;5.264;2023-09-08T03:57:44;101583.0;;;18.18;84.81
67430;BME280;54298;52.076;5.264;2023-09-08T03:59:20;101578.0;;;18.18;84.75
67430;BME280;54298;52.076;5.264;2023-09-08T04:02:32;101581.0;;;18.18;84.84
67430;BME280;54298;52.076;5.264;2023-09-08T04:04:09;101578.0;;;18.07;85.32
67430;BME280;54298;52.076;5.264;2023-09-08T04:05:45;101582.0;;;18.16;85.08
67430;BME280;54298;52.076;5.264;2023-09-08T04:08:57;101583.0;;;18.18;84.89
67430;BME280;54298;52.076;5.264;2023-09-08T04:10:33;101583.0;;;18.14;85.14
67430;BME280;54298;52.076;5.264;2023-09-08T04:12:09;101576.0;;;18.0;85.74
67430;BME280;54298;52.076;5.264;2023-09-08T04:15:21;101573.0;;;17.96;86.1
67430;BME280;54298;52.076;5.264;2023-09-08T04:16:57;101580.0;;;17.88;86.49
67430;BME280;54298;52.076;5.264;2023-09-08T04:18:34;101582.0;;;17.91;86.58
67430;BME280;54298;52.076;5.264;2023-09-08T04:21:47;101578.0;;;18.11;85.47
67430;BME280;54298;52.076;5.264;2023-09-08T04:23:23;101580.0;;;18.11;85.35
67430;BME280;54298;52.076;5.264;2023-09-08T04:24:59;101582.0;;;18.05;85.56
67430;BME280;54298;52.076;5.264;2023-09-08T04:26:36;101580.0;;;18.09;85.47
67430;BME280;54298;52.076;5.264;2023-09-08T04:29:48;101580.0;;;18.18;85.05
67430;BME280;54298;52.076;5.264;2023-09-08T04:31:24;101584.0;;;18.16;85.0
67430;BME280;54298;52.076;5.264;2023-09-08T04:33:01;101583.0;;;18.18;84.9
67430;BME280;54298;52.076;5.264;2023-09-08T04:36:16;101585.0;;;18.12;85.12
67430;BME280;54298;52.076;5.264;2023-09-08T04:37:52;101583.0;;;18.13;84.94
67430;BME280;54298;52.076;5.264;2023-09-08T04:39:28;101583.0;;;18.2;84.64
67430;BME280;54298;52.076;5.264;2023-09-08T04:42:40;101582.0;;;18.09;84.65
67430;BME280;54298;52.076;5.264;2023-09-08T04:44:16;101583.0;;;18.28;84.01
67430;BME280;54298;52.076;5.264;2023-09-08T04:45:52;101580.0;;;18.34;83.25
67430;BME280;54298;52.076;5.264;2023-09-08T04:47:28;101582.0;;;18.2;83.97
67430;BME280;54298;52.076;5.264;2023-09-08T04:50:40;101580.0;;;18.13;84.34
67430;BME280;54298;52.076;5.264;2023-09-08T04:52:16;101580.0;;;18.14;84.39
67430;BME280;54298;52.076;5.264;2023-09-08T04:53:52;101580.0;;;18.16;84.26
67430;BME280;54298;52.076;5.264;2023-09-08T04:57:05;101578.0;;;18.09;84.67
67430;BME280;54298;52.076;5.264;2023-09-08T04:58:41;101580.0;;;18.07;84.47
67430;BME280;54298;52.076;5.264;2023-09-08T05:00:18;101583.0;;;17.96;85.0
67430;BME280;54298;52.076;5.264;2023-09-08T05:03:30;101585.0;;;17.81;85.8
67430;BME280;54298;52.076;5.264;2023-09-08T05:05:06;101582.0;;;17.95;85.21
67430;BME280;54298;52.076;5.264;2023-09-08T05:06:43;101580.0;;;17.97;84.97
67430;BME280;54298;52.076;5.264;2023-09-08T05:08:19;101587.0;;;17.8;85.88
67430;BME280;54298;52.076;5.264;2023-09-08T05:11:31;101584.0;;;17.84;85.58
67430;BME280;54298;52.076;5.264;2023-09-08T05:13:07;101578.0;;;17.93;85.23
67430;BME280;54298;52.076;5.264;2023-09-08T05:14:43;101581.0;;;18.04;84.69
67430;BME280;54298;52.076;5.264;2023-09-08T05:17:56;101580.0;;;18.09;84.06
67430;BME280;54298;52.076;5.264;2023-09-08T05:19:32;101580.0;;;18.2;83.62
67430;BME280;54298;52.076;5.264;2023-09-08T05:21:08;101580.0;;;18.04;84.02
67430;BME280;54298;52.076;5.264;2023-09-08T05:24:20;101580.0;;;18.0;84.56
67430;BME280;54298;52.076;5.264;2023-09-08T05:25:57;101585.0;;;17.79;85.59
67430;BME280;54298;52.076;5.264;2023-09-08T05:27:34;101590.0;;;17.86;85.66
67430;BME280;54298;52.076;5.264;2023-09-08T05:30:47;101593.0;;;17.8;85.79
67430;BME280;54298;52.076;5.264;2023-09-08T05:32:22;101593.0;;;17.77;85.82
67430;BME280;54298;52.076;5.264;2023-09-08T05:33:59;101593.0;;;17.73;86.4
67430;BME280;54298;52.076;5.264;2023-09-08T05:35:35;101596.0;;;17.73;86.54
67430;BME280;54298;52.076;5.264;2023-09-08T05:38:48;101598.0;;;17.81;86.24
67430;BME280;54298;52.076;5.264;2023-09-08T05:40:24;101596.0;;;17.71;86.99
67430;BME280;54298;52.076;5.264;2023-09-08T05:42:00;101597.0;;;17.87;86.42
67430;BME280;54298;52.076;5.264;2023-09-08T05:45:13;101605.0;;;17.96;85.91
67430;BME280;54298;52.076;5.264;2023-09-08T05:46:49;101600.0;;;17.95;86.06
67430;BME280;54298;52.076;5.264;2023-09-08T05:48:25;101605.0;;;17.98;85.84
67430;BME280;54298;52.076;5.264;2023-09-08T05:51:37;101601.0;;;18.02;85.8
67430;BME280;54298;52.076;5.264;2023-09-08T05:53:13;101603.0;;;18.07;85.59
67430;BME280;54298;52.076;5.264;2023-09-08T05:54:49;101605.0;;;18.05;85.89
67430;BME280;54298;52.076;5.264;2023-09-08T05:56:29;101613.0;;;18.12;85.73
67430;BME280;54298;52.076;5.264;2023-09-08T05:59:41;101608.0;;;18.11;85.82
67430;BME280;54298;52.076;5.264;2023-09-08T06:01:18;101610.0;;;18.23;85.32
67430;BME280;54298;52.076;5.264;2023-09-08T06:02:54;101611.0;;;18.3;84.94
67430;BME280;54298;52.076;5.264;2023-09-08T06:06:06;101611.0;;;18.34;84.95
67430;BME280;54298;52.076;5.264;2023-09-08T06:07:42;101613.0;;;18.31;85.07
67430;BME280;54298;52.076;5.264;2023-09-08T06:09:18;101617.0;;;18.39;85.09
67430;BME280;54298;52.076;5.264;2023-09-08T06:12:30;101616.0;;;18.45;85.04
67430;BME280;54298;52.076;5.264;2023-09-08T06:14:06;101614.0;;;18.53;84.89
67430;BME280;54298;52.076;5.264;2023-09-08T06:15:42;101614.0;;;18.7;84.28
67430;BME280;54298;52.076;5.264;2023-09-08T06:18:55;101617.0;;;18.77;83.89
67430;BME280;54298;52.076;5.264;2023-09-08T06:20:31;101618.0;;;19.0;83.07
67430;BME280;54298;52.076;5.264;2023-09-08T06:22:07;101612.0;;;19.06;82.73
67430;BME280;54298;52.076;5.264;2023-09-08T06:23:43;101611.0;;;19.11;82.44
67430;BME280;54298;52.076;5.264;2023-09-08T06:26:57;101613.0;;;19.21;81.95
67430;BME280;54298;52.076;5.264;2023-09-08T06:28:33;101613.0;;;19.36;81.44
67430;BME280;54298;52.076;5.264;2023-09-08T06:30:11;101617.0;;;19.43;81.22
67430;BME280;54298;52.076;5.264;2023-09-08T06:33:23;101620.0;;;19.46;80.83
67430;BME280;54298;52.076;5.264;2023-09-08T06:34:59;101624.0;;;19.62;80.03
67430;BME280;54298;52.076;5.264;2023-09-08T06:36:35;101628.0;;;19.81;79.08
67430;BME280;54298;52.076;5.264;2023-09-08T06:39:47;101630.0;;;19.93;78.5
67430;BME280;54298;52.076;5.264;2023-09-08T06:41:23;101631.0;;;20.03;77.91
67430;BME280;54298;52.076;5.264;2023-09-08T06:42:59;101633.0;;;20.11;76.91
67430;BME280;54298;52.076;5.264;2023-09-08T06:44:35;101628.0;;;20.25;76.52
67430;BME280;54298;52.076;5.264;2023-09-08T06:47:47;101628.0;;;20.32;75.73
67430;BME280;54298;52.076;5.264;2023-09-08T06:49:24;101630.0;;;20.5;75.31
67430;BME280;54298;52.076;5.264;2023-09-08T06:51:00;101631.0;;;20.57;74.99
67430;BME280;54298;52.076;5.264;2023-09-08T06:54:12;101627.0;;;20.54;74.72
67430;BME280;54298;52.076;5.264;2023-09-08T06:55:49;101628.0;;;20.58;74.44
67430;BME280;54298;52.076;5.264;2023-09-08T06:57:24;101632.0;;;20.8;73.81
67430;BME280;54298;52.076;5.264;2023-09-08T07:00:36;101626.0;;;20.91;73.11
67430;BME280;54298;52.076;5.264;2023-09-08T07:02:13;101630.0;;;21.07;72.62
67430;BME280;54298;52.076;5.264;2023-09-08T07:03:49;101633.0;;;21.14;72.19
67430;BME280;54298;52.076;5.264;2023-09-08T07:07:01;101635.0;;;21.22;71.87
67430;BME280;54298;52.076;5.264;2023-09-08T07:08:37;101635.0;;;21.23;72.16
67430;BME280;54298;52.076;5.264;2023-09-08T07:10:13;101631.0;;;21.31;71.44
67430;BME280;54298;52.076;5.264;2023-09-08T07:11:49;101634.0;;;21.43;71.08
67430;BME280;54298;52.076;5.264;2023-09-08T07:15:03;101633.0;;;21.42;70.56
67430;BME280;54298;52.076;5.264;2023-09-08T07:16:39;101634.0;;;21.51;70.39
67430;BME280;54298;52.076;5.264;2023-09-08T07:18:15;101633.0;;;21.65;70.02
67430;BME280;54298;52.076;5.264;2023-09-08T07:21:29;101634.0;;;21.67;69.72
67430;BME280;54298;52.076;5.264;2023-09-08T07:23:05;101630.0;;;21.73;69.45
67430;BME280;54298;52.076;5.264;2023-09-08T07:24:42;101634.0;;;21.9;69.12
67430;BME280;54298;52.076;5.264;2023-09-08T07:27:54;101633.0;;;21.98;68.95
67430;BME280;54298;52.076;5.264;2023-09-08T07:29:30;101635.0;;;22.05;68.52
67430;BME280;54298;52.076;5.264;2023-09-08T07:31:06;101640.0;;;22.09;68.44
67430;BME280;54298;52.076;5.264;2023-09-08T07:32:42;101641.0;;;22.19;68.19
67430;BME280;54298;52.076;5.264;2023-09-08T07:35:54;101643.0;;;22.31;68.06
67430;BME280;54298;52.076;5.264;2023-09-08T07:37:31;101644.0;;;22.4;67.75
67430;BME280;54298;52.076;5.264;2023-09-08T07:39:07;101644.0;;;22.55;67.58
67430;BME280;54298;52.076;5.264;2023-09-08T07:42:19;101639.0;;;22.58;67.44
67430;BME280;54298;52.076;5.264;2023-09-08T07:43:55;101639.0;;;22.74;67.52
67430;BME280;54298;52.076;5.264;2023-09-08T07:45:31;101645.0;;;22.75;67.12
67430;BME280;54298;52.076;5.264;2023-09-08T07:48:43;101644.0;;;22.78;67.14
67430;BME280;54298;52.076;5.264;2023-09-08T07:50:21;101640.0;;;22.84;67.16
67430;BME280;54298;52.076;5.264;2023-09-08T07:51:57;101640.0;;;22.79;67.19
67430;BME280;54298;52.076;5.264;2023-09-08T07:53:33;101642.0;;;22.87;66.58
67430;BME280;54298;52.076;5.264;2023-09-08T07:56:46;101635.0;;;23.01;66.42
67430;BME280;54298;52.076;5.264;2023-09-08T07:58:22;101635.0;;;23.05;66.13
67430;BME280;54298;52.076;5.264;2023-09-08T07:59:58;101632.0;;;23.11;66.41
67430;BME280;54298;52.076;5.264;2023-09-08T08:03:10;101634.0;;;23.2;66.3
67430;BME280;54298;52.076;5.264;2023-09-08T08:04:46;101631.0;;;23.25;65.49
67430;BME280;54298;52.076;5.264;2023-09-08T08:06:22;101634.0;;;23.33;65.34
67430;BME280;54298;52.076;5.264;2023-09-08T08:09:34;101633.0;;;23.47;65.3
67430;BME280;54298;52.076;5.264;2023-09-08T08:11:11;101633.0;;;23.59;65.33
67430;BME280;54298;52.076;5.264;2023-09-08T08:12:48;101637.0;;;23.63;65.42
67430;BME280;54298;52.076;5.264;2023-09-08T08:16:01;101634.0;;;23.66;65.05
67430;BME280;54298;52.076;5.264;2023-09-08T08:17:37;101632.0;;;23.63;65.03
67430;BME280;54298;52.076;5.264;2023-09-08T08:19:14;101631.0;;;23.77;64.78
67430;BME280;54298;52.076;5.264;2023-09-08T08:20:50;101630.0;;;23.86;64.52
67430;BME280;54298;52.076;5.264;2023-09-08T08:24:03;101628.0;;;23.97;64.47
67430;BME280;54298;52.076;5.264;2023-09-08T08:25:39;101625.0;;;24.0;63.8
67430;BME280;54298;52.076;5.264;2023-09-08T08:27:15;101621.0;;;24.18;63.76
67430;BME280;54298;52.076;5.264;2023-09-08T08:30:29;101622.0;;;24.23;63.84
67430;BME280;54298;52.076;5.264;2023-09-08T08:32:05;101619.0;;;24.33;63.31
67430;BME280;54298;52.076;5.264;2023-09-08T08:33:41;101617.0;;;24.45;63.51
67430;BME280;54298;52.076;5.264;2023-09-08T08:36:53;101621.0;;;24.52;63.2
67430;BME280;54298;52.076;5.264;2023-09-08T08:38:29;101620.0;;;24.54;62.76
67430;BME280;54298;52.076;5.264;2023-09-08T08:40:07;101622.0;;;24.52;62.74
67430;BME280;54298;52.076;5.264;2023-09-08T08:41:44;101621.0;;;24.72;62.8
67430;BME280;54298;52.076;5.264;2023-09-08T08:44:59;101622.0;;;24.77;62.32
67430;BME280;54298;52.076;5.264;2023-09-08T08:46:36;101627.0;;;24.82;62.13
67430;BME280;54298;52.076;5.264;2023-09-08T08:48:13;101621.0;;;24.99;61.92
67430;BME280;54298;52.076;5.264;2023-09-08T08:51:30;101618.0;;;24.96;61.9
67430;BME280;54298;52.076;5.264;2023-09-08T08:53:06;101621.0;;;25.01;61.65
67430;BME280;54298;52.076;5.264;2023-09-08T08:54:44;101623.0;;;25.11;61.42
67430;BME280;54298;52.076;5.264;2023-09-08T08:56:20;101624.0;;;25.11;61.3
67430;BME280;54298;52.076;5.264;2023-09-08T08:59:39;101623.0;;;25.2;61.09
67430;BME280;54298;52.076;5.264;2023-09-08T09:01:16;101625.0;;;25.26;61.1
67430;BME280;54298;52.076;5.264;2023-09-08T09:02:53;101624.0;;;25.32;61.05
67430;BME280;54298;52.076;5.264;2023-09-08T09:06:07;101623.0;;;25.41;61.29
67430;BME280;54298;52.076;5.264;2023-09-08T09:07:43;101627.0;;;25.45;60.91
67430;BME280;54298;52.076;5.264;2023-09-08T09:09:20;101621.0;;;25.55;60.98
67430;BME280;54298;52.076;5.264;2023-09-08T09:14:11;101622.0;;;25.66;60.51
67430;BME280;54298;52.076;5.264;2023-09-08T09:15:48;101626.0;;;25.74;60.62
67430;BME280;54298;52.076;5.264;2023-09-08T09:17:25;101622.0;;;25.89;60.42
67430;BME280;54298;52.076;5.264;2023-09-08T09:20:37;101622.0;;;25.85;59.93
67430;BME280;54298;52.076;5.264;2023-09-08T09:22:13;101625.0;;;25.91;59.66
67430;BME280;54298;52.076;5.264;2023-09-08T09:23:50;101622.0;;;25.94;59.63
67430;BME280;54298;52.076;5.264;2023-09-08T09:27:05;101626.0;;;26.0;59.67
67430;BME280;54298;52.076;5.264;2023-09-08T09:28:47;101630.0;;;26.08;59.75
67430;BME280;54298;52.076;5.264;2023-09-08T09:30:24;101633.0;;;26.05;59.46
67430;BME280;54298;52.076;5.264;2023-09-08T09:32:03;101630.0;;;26.17;59.16
67430;BME280;54298;52.076;5.264;2023-09-08T09:35:17;101630.0;;;26.21;59.2
67430;BME280;54298;52.076;5.264;2023-09-08T09:36:53;101631.0;;;26.23;59.32
67430;BME280;54298;52.076;5.264;2023-09-08T09:38:29;101631.0;;;26.3;58.99
67430;BME280;54298;52.076;5.264;2023-09-08T09:41:42;101626.0;;;26.17;59.64
67430;BME280;54298;52.076;5.264;2023-09-08T09:43:20;101626.0;;;26.31;59.43
67430;BME280;54298;52.076;5.264;2023-09-08T09:45:00;101620.0;;;26.46;58.81
67430;BME280;54298;52.076;5.264;2023-09-08T09:46:36;101618.0;;;26.42;59.13
67430;BME280;54298;52.076;5.264;2023-09-08T09:49:49;101622.0;;;26.57;58.92
67430;BME280;54298;52.076;5.264;2023-09-08T09:51:25;101623.0;;;26.66;58.63
67430;BME280;54298;52.076;5.264;2023-09-08T09:53:07;101623.0;;;26.65;58.67
67430;BME280;54298;52.076;5.264;2023-09-08T09:56:22;101624.0;;;26.8;58.55
67430;BME280;54298;52.076;5.264;2023-09-08T09:57:59;101621.0;;;26.84;58.22
67430;BME280;54298;52.076;5.264;2023-09-08T09:59:35;101621.0;;;26.75;57.91
67430;BME280;54298;52.076;5.264;2023-09-08T10:01:11;101622.0;;;26.78;57.79
67430;BME280;54298;52.076;5.264;2023-09-08T10:04:24;101618.0;;;26.71;57.57
67430;BME280;54298;52.076;5.264;2023-09-08T10:06:02;101619.0;;;26.83;57.54
67430;BME280;54298;52.076;5.264;2023-09-08T10:07:39;101614.0;;;26.82;57.56
67430;BME280;54298;52.076;5.264;2023-09-08T10:10:52;101616.0;;;26.9;57.53
67430;BME280;54298;52.076;5.264;2023-09-08T10:12:28;101618.0;;;26.76;57.27
67430;BME280;54298;52.076;5.264;2023-09-08T10:14:07;101615.0;;;26.88;57.16
67430;BME280;54298;52.076;5.264;2023-09-08T10:17:24;101617.0;;;26.87;57.41
67430;BME280;54298;52.076;5.264;2023-09-08T10:19:07;101617.0;;;26.97;57.42
67430;BME280;54298;52.076;5.264;2023-09-08T10:20:44;101620.0;;;26.98;56.94
67430;BME280;54298;52.076;5.264;2023-09-08T10:22:26;101618.0;;;26.96;57.41
67430;BME280;54298;52.076;5.264;2023-09-08T10:25:53;101614.0;;;27.06;57.63
67430;BME280;54298;52.076;5.264;2023-09-08T10:27:32;101614.0;;;27.06;57.67
67430;BME280;54298;52.076;5.264;2023-09-08T10:29:09;101612.0;;;27.14;57.21
67430;BME280;54298;52.076;5.264;2023-09-08T10:30:46;101618.0;;;27.23;57.33
67430;BME280;54298;52.076;5.264;2023-09-08T10:34:00;101612.0;;;27.36;56.51
67430;BME280;54298;52.076;5.264;2023-09-08T10:35:38;101615.0;;;27.34;56.96
67430;BME280;54298;52.076;5.264;2023-09-08T10:37:19;101612.0;;;27.38;56.49
67430;BME280;54298;52.076;5.264;2023-09-08T10:39:27;101605.0;;;27.44;56.65
67430;BME280;54298;52.076;5.264;2023-09-08T10:41:35;101605.0;;;27.51;56.68
67430;BME280;54298;52.076;5.264;2023-09-08T10:43:12;101605.0;;;27.54;56.69
67430;BME280;54298;52.076;5.264;2023-09-08T10:46:36;101607.0;;;27.63;56.49
67430;BME280;54298;52.076;5.264;2023-09-08T10:48:14;101602.0;;;27.77;56.35
67430;BME280;54298;52.076;5.264;2023-09-08T10:49:50;101596.0;;;27.76;56.05
67430;BME280;54298;52.076;5.264;2023-09-08T10:51:27;101600.0;;;27.88;56.32
67430;BME280;54298;52.076;5.264;2023-09-08T10:54:49;101598.0;;;27.98;56.19
67430;BME280;54298;52.076;5.264;2023-09-08T10:56:28;101599.0;;;28.04;56.35
67430;BME280;54298;52.076;5.264;2023-09-08T10:58:04;101600.0;;;28.11;56.23
67430;BME280;54298;52.076;5.264;2023-09-08T11:01:21;101603.0;;;28.26;55.24
67430;BME280;54298;52.076;5.264;2023-09-08T11:02:58;101600.0;;;28.25;55.02
67430;BME280;54298;52.076;5.264;2023-09-08T11:04:34;101599.0;;;28.15;55.59
67430;BME280;54298;52.076;5.264;2023-09-08T11:06:11;101602.0;;;28.42;55.19
67430;BME280;54298;52.076;5.264;2023-09-08T11:09:24;101601.0;;;28.56;54.54
67430;BME280;54298;52.076;5.264;2023-09-08T11:11:01;101603.0;;;28.51;54.58